createdAt,value
2023-04-12T00:00:00.962Z,6.37
2023-04-12T00:01:02.826Z,6.39
2023-04-12T00:02:05.213Z,6.38
2023-04-12T00:03:08.069Z,6.34
2023-04-12T00:04:10.512Z,6.33
2023-04-12T00:05:14.392Z,6.36
2023-04-12T00:06:17.655Z,6.36
2023-04-12T00:07:21.660Z,6.37
2023-04-12T00:08:33.866Z,6.38
2023-04-12T00:09:36.796Z,6.36
2023-04-12T00:10:38.700Z,6.36
2023-04-12T00:11:40.683Z,6.37
2023-04-12T00:12:42.493Z,6.32
2023-04-12T00:13:44.380Z,6.31
2023-04-12T00:14:46.961Z,6.34
2023-04-12T00:15:49.372Z,6.37
2023-04-12T00:16:51.314Z,6.39
2023-04-12T00:17:53.197Z,6.41
2023-04-12T00:18:57.854Z,6.42
2023-04-12T00:19:59.746Z,6.44
2023-04-12T00:21:01.632Z,6.41
2023-04-12T00:22:03.518Z,6.39
2023-04-12T00:23:05.419Z,6.39
2023-04-12T00:24:07.442Z,6.37
2023-04-12T00:25:09.743Z,6.37
2023-04-12T00:26:11.636Z,6.38
2023-04-12T00:27:13.481Z,6.37
2023-04-12T00:28:16.325Z,6.39
2023-04-12T00:29:18.278Z,6.40
2023-04-12T00:30:20.116Z,6.39
2023-04-12T00:31:22.093Z,6.36
2023-04-12T00:32:23.991Z,6.32
2023-04-12T00:33:25.866Z,6.32
2023-04-12T00:34:28.658Z,6.34
2023-04-12T00:35:30.920Z,6.35
2023-04-12T00:36:32.848Z,6.36
2023-04-12T00:37:36.533Z,6.33
2023-04-12T00:38:38.358Z,6.30
2023-04-12T00:39:40.244Z,6.28
2023-04-12T00:40:43.129Z,6.23
2023-04-12T00:41:45.002Z,6.21
2023-04-12T00:42:47.235Z,6.21
2023-04-12T00:43:50.051Z,6.24
2023-04-12T00:44:51.852Z,6.27
2023-04-12T00:45:54.820Z,6.29
2023-04-12T00:46:56.793Z,6.31
2023-04-12T00:47:58.959Z,6.30
2023-04-12T00:49:01.104Z,6.30
2023-04-12T00:50:04.371Z,6.30
2023-04-12T00:51:07.157Z,6.29
2023-04-12T00:52:10.565Z,6.25
2023-04-12T00:53:14.009Z,6.25
2023-04-12T00:54:18.468Z,6.25
2023-04-12T00:55:20.336Z,6.26
2023-04-12T00:56:24.010Z,6.27
2023-04-12T00:57:25.840Z,6.24
2023-04-12T00:58:27.738Z,6.14
2023-04-12T00:59:30.117Z,6.12
2023-04-12T01:00:31.963Z,6.11
2023-04-12T01:01:33.881Z,6.11
2023-04-12T01:02:35.976Z,6.11
2023-04-12T01:03:43.595Z,5.99
2023-04-12T01:04:50.854Z,5.99
2023-04-12T01:06:04.652Z,5.99
2023-04-12T01:07:16.128Z,5.99
2023-04-12T01:08:17.910Z,5.96
2023-04-12T01:09:20.803Z,5.97
2023-04-12T01:10:27.969Z,5.97
2023-04-12T01:11:42.907Z,6.00
2023-04-12T01:13:03.194Z,5.97
2023-04-12T01:14:11.881Z,5.94
2023-04-12T01:15:14.928Z,5.97
2023-04-12T01:16:22.848Z,6.00
2023-04-12T01:17:38.205Z,6.00
2023-04-12T01:18:41.965Z,6.03
2023-04-12T01:20:13.895Z,6.01
2023-04-12T01:21:18.922Z,5.97
2023-04-12T01:22:37.481Z,5.95
2023-04-12T01:23:45.043Z,5.95
2023-04-12T01:24:53.209Z,5.97
2023-04-12T01:26:16.115Z,5.98
2023-04-12T01:27:30.228Z,6.00
2023-04-12T01:28:38.018Z,6.03
2023-04-12T01:29:40.832Z,6.05
2023-04-12T01:30:43.995Z,6.08
2023-04-12T01:31:58.308Z,6.10
2023-04-12T01:33:01.163Z,6.13
2023-04-12T01:34:04.345Z,6.11
2023-04-12T01:35:09.106Z,6.10
2023-04-12T01:36:17.097Z,6.09
2023-04-12T01:37:20.557Z,6.07
2023-04-12T01:38:22.439Z,6.07
2023-04-12T01:39:24.292Z,6.08
2023-04-12T01:40:28.455Z,6.06
2023-04-12T01:41:31.055Z,6.05
2023-04-12T01:42:33.137Z,6.07
2023-04-12T01:43:40.378Z,6.09
2023-04-12T01:44:42.212Z,6.11
2023-04-12T01:45:44.187Z,6.11
2023-04-12T01:46:49.463Z,6.10
2023-04-12T01:47:51.402Z,6.06
2023-04-12T01:48:54.006Z,5.98
2023-04-12T01:50:01.382Z,5.98
2023-04-12T01:51:08.253Z,5.86
2023-04-12T01:52:12.754Z,5.80
2023-04-12T01:53:18.830Z,5.82
2023-04-12T01:54:26.433Z,5.78
2023-04-12T01:55:30.295Z,5.80
2023-04-12T01:56:34.805Z,5.77
2023-04-12T01:57:38.103Z,5.76
2023-04-12T01:58:40.192Z,5.79
2023-04-12T01:59:43.425Z,5.85
2023-04-12T02:00:45.673Z,5.90
2023-04-12T02:01:48.180Z,5.93
2023-04-12T02:02:50.940Z,5.96
2023-04-12T02:03:53.785Z,5.97
2023-04-12T02:04:56.180Z,5.97
2023-04-12T02:05:59.380Z,5.99
2023-04-12T02:07:01.656Z,5.98
2023-04-12T02:08:04.342Z,5.95
2023-04-12T02:09:06.888Z,5.92
2023-04-12T02:10:13.326Z,5.93
2023-04-12T02:11:15.244Z,5.97
2023-04-12T02:12:17.118Z,6.00
2023-04-12T02:13:19.036Z,6.01
2023-04-12T02:14:20.890Z,5.99
2023-04-12T02:15:22.863Z,5.91
2023-04-12T02:16:25.402Z,5.91
2023-04-12T02:17:27.434Z,5.91
2023-04-12T02:18:30.481Z,5.90
2023-04-12T02:19:33.195Z,5.91
2023-04-12T02:20:36.174Z,5.91
2023-04-12T02:21:42.503Z,5.88
2023-04-12T02:22:44.340Z,5.81
2023-04-12T02:23:46.330Z,5.81
2023-04-12T02:24:48.209Z,5.82
2023-04-12T02:25:49.956Z,5.72
2023-04-12T02:26:51.800Z,5.64
2023-04-12T02:27:53.644Z,5.66
2023-04-12T02:28:55.479Z,5.65
2023-04-12T02:29:59.083Z,5.63
2023-04-12T02:31:01.289Z,5.61
2023-04-12T02:32:03.109Z,5.54
2023-04-12T02:33:06.375Z,5.54
2023-04-12T02:34:08.225Z,5.56
2023-04-12T02:35:13.821Z,5.54
2023-04-12T02:36:15.743Z,5.53
2023-04-12T02:37:18.401Z,5.58
2023-04-12T02:38:20.161Z,5.57
2023-04-12T02:39:22.566Z,5.57
2023-04-12T02:40:24.408Z,5.56
2023-04-12T02:41:26.415Z,5.50
2023-04-12T02:42:28.283Z,5.49
2023-04-12T02:43:30.094Z,5.45
2023-04-12T02:44:31.917Z,5.34
2023-04-12T02:45:33.919Z,5.20
2023-04-12T02:46:35.821Z,5.11
2023-04-12T02:47:38.409Z,5.06
2023-04-12T02:48:40.287Z,5.01
2023-04-12T02:49:42.664Z,4.90
2023-04-12T02:50:45.045Z,4.84
2023-04-12T02:51:46.948Z,4.81
2023-04-12T02:52:48.704Z,4.82
2023-04-12T02:53:50.771Z,4.82
2023-04-12T02:54:52.902Z,4.84
2023-04-12T02:55:54.781Z,4.87
2023-04-12T02:56:56.619Z,4.79
2023-04-12T02:57:58.737Z,4.78
2023-04-12T02:59:00.511Z,4.76
2023-04-12T03:00:07.751Z,4.78
2023-04-12T03:01:13.418Z,4.82
2023-04-12T03:02:15.364Z,4.82
2023-04-12T03:03:18.285Z,4.85
2023-04-12T03:04:20.465Z,4.87
2023-04-12T03:05:22.533Z,4.85
2023-04-12T03:06:24.390Z,4.77
2023-04-12T03:07:26.233Z,4.75
2023-04-12T03:08:28.235Z,4.71
2023-04-12T03:09:30.064Z,4.68
2023-04-12T03:10:31.929Z,4.61
2023-04-12T03:11:33.728Z,4.66
2023-04-12T03:12:35.720Z,4.71
2023-04-12T03:13:37.504Z,4.70
2023-04-12T03:14:39.411Z,4.73
2023-04-12T03:15:41.684Z,4.75
2023-04-12T03:16:43.583Z,4.76
2023-04-12T03:17:45.961Z,4.77
2023-04-12T03:18:47.863Z,4.80
2023-04-12T03:19:49.944Z,4.81
2023-04-12T03:20:52.837Z,4.76
2023-04-12T03:21:54.816Z,4.72
2023-04-12T03:22:56.790Z,4.60
2023-04-12T03:23:58.822Z,4.59
2023-04-12T03:25:01.714Z,4.64
2023-04-12T03:26:04.205Z,4.59
2023-04-12T03:27:07.278Z,4.61
2023-04-12T03:28:09.269Z,4.65
2023-04-12T03:29:11.381Z,4.66
2023-04-12T03:30:13.866Z,4.65
2023-04-12T03:31:15.827Z,4.63
2023-04-12T03:32:17.683Z,4.64
2023-04-12T03:33:19.518Z,4.57
2023-04-12T03:34:22.490Z,4.61
2023-04-12T03:35:24.372Z,4.64
2023-04-12T03:36:27.581Z,4.56
2023-04-12T03:37:29.691Z,4.58
2023-04-12T03:38:32.174Z,4.60
2023-04-12T03:39:34.002Z,4.53
2023-04-12T03:40:35.794Z,4.54
2023-04-12T03:41:37.612Z,4.47
2023-04-12T03:42:39.589Z,4.49
2023-04-12T03:43:42.857Z,4.49
2023-04-12T03:44:44.684Z,4.51
2023-04-12T03:45:46.647Z,4.54
2023-04-12T03:46:49.285Z,4.52
2023-04-12T03:47:51.387Z,4.56
2023-04-12T03:48:53.283Z,4.61
2023-04-12T03:50:11.983Z,4.57
2023-04-12T03:51:15.579Z,4.59
2023-04-12T03:52:17.341Z,4.53
2023-04-12T03:53:19.221Z,4.44
2023-04-12T03:54:21.007Z,4.35
2023-04-12T03:55:22.799Z,4.32
2023-04-12T03:56:24.754Z,4.25
2023-04-12T03:57:26.568Z,4.13
2023-04-12T03:58:28.418Z,4.00
2023-04-12T03:59:30.346Z,3.98
2023-04-12T04:00:32.495Z,4.04
2023-04-12T04:01:37.443Z,4.11
2023-04-12T04:02:39.415Z,4.19
2023-04-12T04:03:41.596Z,4.25
2023-04-12T04:04:43.892Z,4.26
2023-04-12T04:05:45.978Z,4.19
2023-04-12T04:06:48.861Z,4.16
2023-04-12T04:07:51.481Z,4.18
2023-04-12T04:08:53.482Z,4.23
2023-04-12T04:09:55.809Z,4.26
2023-04-12T04:10:58.120Z,4.29
2023-04-12T04:11:59.903Z,4.30
2023-04-12T04:13:01.790Z,4.34
2023-04-12T04:14:04.174Z,4.37
2023-04-12T04:15:06.118Z,4.39
2023-04-12T04:16:10.340Z,4.43
2023-04-12T04:17:12.257Z,4.47
2023-04-12T04:18:14.182Z,4.47
2023-04-12T04:19:16.086Z,4.48
2023-04-12T04:20:19.208Z,4.49
2023-04-12T04:21:22.890Z,4.50
2023-04-12T04:22:24.720Z,4.50
2023-04-12T04:23:27.981Z,4.49
2023-04-12T04:24:30.460Z,4.50
2023-04-12T04:25:32.524Z,4.51
2023-04-12T04:26:34.386Z,4.55
2023-04-12T04:27:38.716Z,4.48
2023-04-12T04:28:45.205Z,4.42
2023-04-12T04:29:47.273Z,4.34
2023-04-12T04:30:49.110Z,4.31
2023-04-12T04:31:51.040Z,4.35
2023-04-12T04:32:53.141Z,4.34
2023-04-12T04:33:55.128Z,4.27
2023-04-12T04:35:00.234Z,4.27
2023-04-12T04:36:04.515Z,4.33
2023-04-12T04:37:06.988Z,4.32
2023-04-12T04:38:08.874Z,4.39
2023-04-12T04:39:10.851Z,4.39
2023-04-12T04:40:12.977Z,4.42
2023-04-12T04:41:14.816Z,4.45
2023-04-12T04:42:16.695Z,4.40
2023-04-12T04:43:19.110Z,4.39
2023-04-12T04:44:21.975Z,4.37
2023-04-12T04:45:26.903Z,4.40
2023-04-12T04:46:30.690Z,4.37
2023-04-12T04:47:32.640Z,4.40
2023-04-12T04:48:34.751Z,4.42
2023-04-12T04:49:37.521Z,4.45
2023-04-12T04:50:39.414Z,4.47
2023-04-12T04:51:41.225Z,4.43
2023-04-12T04:52:43.029Z,4.45
2023-04-12T04:53:44.856Z,4.48
2023-04-12T04:54:47.311Z,4.47
2023-04-12T04:55:49.308Z,4.43
2023-04-12T04:56:51.364Z,4.42
2023-04-12T04:57:53.206Z,4.44
2023-04-12T04:58:57.013Z,4.37
2023-04-12T04:59:59.365Z,4.39
2023-04-12T05:01:01.323Z,4.45
2023-04-12T05:02:03.304Z,4.44
2023-04-12T05:03:05.335Z,4.44
2023-04-12T05:04:07.271Z,4.44
2023-04-12T05:05:13.763Z,4.44
2023-04-12T05:06:15.737Z,4.43
2023-04-12T05:07:17.588Z,4.44
2023-04-12T05:08:19.524Z,4.44
2023-04-12T05:09:21.382Z,4.41
2023-04-12T05:10:23.312Z,4.39
2023-04-12T05:11:25.763Z,4.40
2023-04-12T05:12:27.668Z,4.32
2023-04-12T05:13:29.507Z,4.31
2023-04-12T05:14:45.546Z,4.35
2023-04-12T05:15:49.115Z,4.35
2023-04-12T05:16:51.040Z,4.29
2023-04-12T05:17:53.025Z,4.24
2023-04-12T05:18:55.215Z,4.25
2023-04-12T05:19:57.425Z,4.29
2023-04-12T05:21:02.809Z,4.27
2023-04-12T05:22:04.727Z,4.28
2023-04-12T05:23:06.779Z,4.32
2023-04-12T05:24:08.832Z,4.31
2023-04-12T05:25:10.977Z,4.27
2023-04-12T05:26:12.895Z,4.28
2023-04-12T05:27:16.821Z,4.25
2023-04-12T05:28:18.727Z,4.27
2023-04-12T05:29:20.614Z,4.22
2023-04-12T05:30:22.536Z,4.21
2023-04-12T05:31:25.466Z,4.21
2023-04-12T05:32:29.937Z,4.25
2023-04-12T05:33:33.440Z,4.26
2023-04-12T05:34:35.475Z,4.22
2023-04-12T05:35:37.544Z,4.20
2023-04-12T05:36:39.459Z,4.22
2023-04-12T05:37:41.362Z,4.30
2023-04-12T05:38:43.647Z,4.33
2023-04-12T05:39:45.575Z,4.37
2023-04-12T05:40:50.283Z,4.40
2023-04-12T05:41:52.092Z,4.43
2023-04-12T05:42:54.131Z,4.47
2023-04-12T05:43:55.982Z,4.53
2023-04-12T05:44:57.776Z,4.62
2023-04-12T05:45:59.750Z,4.65
2023-04-12T05:47:01.603Z,4.68
2023-04-12T05:48:03.583Z,4.71
2023-04-12T05:49:06.342Z,4.66
2023-04-12T05:50:08.339Z,4.64
2023-04-12T05:51:10.227Z,4.62
2023-04-12T05:52:12.041Z,4.63
2023-04-12T05:53:14.720Z,4.63
2023-04-12T05:54:16.489Z,4.74
2023-04-12T05:55:18.739Z,4.75
2023-04-12T05:56:21.100Z,4.77
2023-04-12T05:57:22.935Z,4.80
2023-04-12T05:58:24.894Z,4.85
2023-04-12T05:59:26.761Z,4.88
2023-04-12T06:00:29.253Z,4.86
2023-04-12T06:01:34.552Z,4.85
2023-04-12T06:02:37.428Z,4.86
2023-04-12T06:03:42.149Z,4.88
2023-04-12T06:04:50.666Z,4.88
2023-04-12T06:05:53.277Z,4.91
2023-04-12T06:06:56.480Z,4.92
2023-04-12T06:08:00.098Z,4.93
2023-04-12T06:09:03.166Z,4.91
2023-04-12T06:10:05.513Z,4.92
2023-04-12T06:11:08.373Z,4.98
2023-04-12T06:12:10.218Z,5.00
2023-04-12T06:13:12.169Z,5.04
2023-04-12T06:14:14.087Z,5.03
2023-04-12T06:15:16.138Z,5.08
2023-04-12T06:16:17.998Z,5.05
2023-04-12T06:17:19.914Z,5.10
2023-04-12T06:18:21.732Z,5.14
2023-04-12T06:19:23.589Z,5.15
2023-04-12T06:20:25.689Z,5.16
2023-04-12T06:21:28.051Z,5.16
2023-04-12T06:22:29.883Z,5.13
2023-04-12T06:23:31.913Z,5.11
2023-04-12T06:24:33.785Z,5.13
2023-04-12T06:25:35.839Z,5.18
2023-04-12T06:26:40.139Z,5.22
2023-04-12T06:27:42.669Z,5.29
2023-04-12T06:28:44.538Z,5.27
2023-04-12T06:29:46.699Z,5.34
2023-04-12T06:30:48.522Z,5.38
2023-04-12T06:31:50.342Z,5.40
2023-04-12T06:32:52.294Z,5.37
2023-04-12T06:33:54.142Z,5.36
2023-04-12T06:34:56.697Z,5.38
2023-04-12T06:35:58.673Z,5.39
2023-04-12T06:37:00.959Z,5.47
2023-04-12T06:38:02.811Z,5.54
2023-04-12T06:39:04.689Z,5.54
2023-04-12T06:40:06.974Z,5.55
2023-04-12T06:41:08.862Z,5.59
2023-04-12T06:42:12.099Z,5.61
2023-04-12T06:43:22.899Z,5.64
2023-04-12T06:44:26.534Z,5.71
2023-04-12T06:45:28.452Z,5.77
2023-04-12T06:46:30.823Z,5.75
2023-04-12T06:47:33.222Z,5.80
2023-04-12T06:48:35.059Z,5.89
2023-04-12T06:49:36.891Z,5.86
2023-04-12T06:50:39.501Z,5.88
2023-04-12T06:51:41.557Z,5.92
2023-04-12T06:52:43.452Z,5.95
2023-04-12T06:53:45.310Z,5.93
2023-04-12T06:54:47.228Z,5.88
2023-04-12T06:55:49.114Z,5.86
2023-04-12T06:56:51.021Z,5.91
2023-04-12T06:57:53.057Z,5.96
2023-04-12T06:58:55.188Z,6.00
2023-04-12T06:59:57.366Z,6.10
2023-04-12T07:01:08.971Z,6.10
2023-04-12T07:02:11.177Z,6.07
2023-04-12T07:03:13.186Z,6.08
2023-04-12T07:04:15.337Z,6.11
2023-04-12T07:05:17.453Z,6.13
2023-04-12T07:06:25.755Z,6.14
2023-04-12T07:07:28.278Z,6.20
2023-04-12T07:08:30.368Z,6.25
2023-04-12T07:09:34.897Z,6.31
2023-04-12T07:10:36.729Z,6.31
2023-04-12T07:11:38.779Z,6.40
2023-04-12T07:12:40.721Z,6.47
2023-04-12T07:13:42.480Z,6.48
2023-04-12T07:14:44.845Z,6.50
2023-04-12T07:15:47.577Z,6.54
2023-04-12T07:16:49.546Z,6.49
2023-04-12T07:17:52.195Z,6.49
2023-04-12T07:18:54.171Z,6.54
2023-04-12T07:19:56.090Z,6.58
2023-04-12T07:20:58.837Z,6.57
2023-04-12T07:22:01.395Z,6.56
2023-04-12T07:23:03.386Z,6.54
2023-04-12T07:24:05.319Z,6.61
2023-04-12T07:25:11.217Z,6.54
2023-04-12T07:26:13.052Z,6.58
2023-04-12T07:27:14.948Z,6.60
2023-04-12T07:28:17.095Z,6.63
2023-04-12T07:29:19.216Z,6.64
2023-04-12T07:30:21.116Z,6.66
2023-04-12T07:31:23.960Z,6.60
2023-04-12T07:32:25.901Z,6.60
2023-04-12T07:33:27.832Z,6.60
2023-04-12T07:34:30.023Z,6.64
2023-04-12T07:35:32.351Z,6.59
2023-04-12T07:36:34.219Z,6.64
2023-04-12T07:37:36.298Z,6.68
2023-04-12T07:38:38.250Z,6.70
2023-04-12T07:39:41.176Z,6.72
2023-04-12T07:40:43.061Z,6.80
2023-04-12T07:41:46.827Z,6.85
2023-04-12T07:42:48.681Z,6.87
2023-04-12T07:43:50.677Z,6.87
2023-04-12T07:44:52.479Z,6.85
2023-04-12T07:45:57.314Z,6.84
2023-04-12T07:46:59.223Z,6.78
2023-04-12T07:48:01.314Z,6.81
2023-04-12T07:49:04.065Z,6.83
2023-04-12T07:50:06.523Z,6.85
2023-04-12T07:51:08.383Z,6.89
2023-04-12T07:52:10.174Z,6.87
2023-04-12T07:53:22.527Z,6.89
2023-04-12T07:54:27.162Z,6.94
2023-04-12T07:55:28.956Z,6.98
2023-04-12T07:56:31.109Z,7.03
2023-04-12T07:57:34.181Z,7.06
2023-04-12T07:58:36.198Z,7.09
2023-04-12T07:59:37.990Z,7.11
2023-04-12T08:00:39.843Z,7.15
2023-04-12T08:01:41.808Z,7.17
2023-04-12T08:02:43.998Z,7.19
2023-04-12T08:03:46.002Z,7.22
2023-04-12T08:04:47.861Z,7.26
2023-04-12T08:05:53.875Z,7.24
2023-04-12T08:06:55.952Z,7.23
2023-04-12T08:07:58.152Z,7.26
2023-04-12T08:09:00.103Z,7.29
2023-04-12T08:10:02.006Z,7.32
2023-04-12T08:11:05.356Z,7.36
2023-04-12T08:12:07.490Z,7.38
2023-04-12T08:13:09.357Z,7.34
2023-04-12T08:14:11.367Z,7.34
2023-04-12T08:15:13.879Z,7.38
2023-04-12T08:16:16.028Z,7.44
2023-04-12T08:17:17.992Z,7.46
2023-04-12T08:18:19.877Z,7.46
2023-04-12T08:19:21.789Z,7.51
2023-04-12T08:20:23.821Z,7.54
2023-04-12T08:21:26.223Z,7.58
2023-04-12T08:22:28.828Z,7.59
2023-04-12T08:23:30.792Z,7.60
2023-04-12T08:24:32.618Z,7.61
2023-04-12T08:25:34.648Z,7.68
2023-04-12T08:26:36.749Z,7.70
2023-04-12T08:27:40.160Z,7.71
2023-04-12T08:28:42.026Z,7.78
2023-04-12T08:29:44.367Z,7.81
2023-04-12T08:30:46.656Z,7.89
2023-04-12T08:31:48.612Z,7.92
2023-04-12T08:32:50.450Z,8.02
2023-04-12T08:33:52.374Z,8.02
2023-04-12T08:34:54.200Z,8.03
2023-04-12T08:35:56.147Z,8.06
2023-04-12T08:37:00.809Z,8.09
2023-04-12T08:38:07.855Z,8.14
2023-04-12T08:39:09.828Z,8.14
2023-04-12T08:40:11.760Z,8.15
2023-04-12T08:41:14.778Z,8.17
2023-04-12T08:42:17.411Z,8.20
2023-04-12T08:43:19.471Z,8.18
2023-04-12T08:44:28.973Z,8.21
2023-04-12T08:45:32.435Z,8.20
2023-04-12T08:46:36.126Z,8.23
2023-04-12T08:47:39.068Z,8.21
2023-04-12T08:48:40.981Z,8.21
2023-04-12T08:49:42.865Z,8.24
2023-04-12T08:50:48.375Z,8.29
2023-04-12T08:51:54.234Z,8.35
2023-04-12T08:52:56.209Z,8.37
2023-04-12T08:53:59.748Z,8.41
2023-04-12T08:55:06.083Z,8.47
2023-04-12T08:56:10.858Z,8.45
2023-04-12T08:57:13.229Z,8.45
2023-04-12T08:58:15.678Z,8.47
2023-04-12T08:59:17.712Z,8.50
2023-04-12T09:00:20.796Z,8.48
2023-04-12T09:01:22.948Z,8.51
2023-04-12T09:02:25.178Z,8.52
2023-04-12T09:03:29.852Z,8.53
2023-04-12T09:04:33.680Z,8.57
2023-04-12T09:05:35.566Z,8.64
2023-04-12T09:06:37.441Z,8.72
2023-04-12T09:07:39.256Z,8.76
2023-04-12T09:08:54.335Z,8.82
2023-04-12T09:09:56.739Z,8.92
2023-04-12T09:10:58.599Z,8.99
2023-04-12T09:12:10.184Z,9.00
2023-04-12T09:13:12.122Z,8.98
2023-04-12T09:14:23.940Z,8.92
2023-04-12T09:15:26.033Z,8.88
2023-04-12T09:16:41.782Z,8.88
2023-04-12T09:17:43.855Z,8.82
2023-04-12T09:18:55.621Z,8.79
2023-04-12T09:19:57.696Z,8.80
2023-04-12T09:21:09.211Z,8.84
2023-04-12T09:22:11.556Z,8.89
2023-04-12T09:23:20.612Z,8.89
2023-04-12T09:24:24.560Z,8.87
2023-04-12T09:25:39.557Z,8.89
2023-04-12T09:26:41.501Z,8.83
2023-04-12T09:27:50.614Z,8.83
2023-04-12T09:28:52.462Z,8.81
2023-04-12T09:30:07.069Z,8.78
2023-04-12T09:31:15.714Z,8.79
2023-04-12T09:32:25.291Z,8.82
2023-04-12T09:33:37.523Z,8.87
2023-04-12T09:34:40.074Z,8.88
2023-04-12T09:35:43.513Z,8.89
2023-04-12T09:36:45.386Z,8.94
2023-04-12T09:37:57.621Z,8.97
2023-04-12T09:39:01.313Z,8.98
2023-04-12T09:40:05.220Z,9.00
2023-04-12T09:41:20.265Z,9.05
2023-04-12T09:42:33.153Z,9.09
2023-04-12T09:43:38.870Z,9.08
2023-04-12T09:44:41.057Z,9.08
2023-04-12T09:45:42.972Z,9.10
2023-04-12T09:46:52.356Z,9.13
2023-04-12T09:47:55.131Z,9.11
2023-04-12T09:48:59.425Z,9.13
2023-04-12T09:50:01.699Z,9.11
2023-04-12T09:51:03.800Z,9.11
2023-04-12T09:52:06.682Z,9.14
2023-04-12T09:53:15.866Z,9.16
2023-04-12T09:54:17.828Z,9.19
2023-04-12T09:55:21.505Z,9.24
2023-04-12T09:56:23.530Z,9.29
2023-04-12T09:57:26.831Z,9.28
2023-04-12T09:58:30.662Z,9.30
2023-04-12T09:59:36.248Z,9.29
2023-04-12T10:00:38.304Z,9.33
2023-04-12T10:01:40.466Z,9.34
2023-04-12T10:02:44.824Z,9.40
2023-04-12T10:03:49.091Z,9.40
2023-04-12T10:04:51.714Z,9.44
2023-04-12T10:05:55.452Z,9.44
2023-04-12T10:07:01.191Z,9.41
2023-04-12T10:08:03.086Z,9.39
2023-04-12T10:09:05.208Z,9.44
2023-04-12T10:10:08.888Z,9.49
2023-04-12T10:11:12.105Z,9.53
2023-04-12T10:12:14.696Z,9.55
2023-04-12T10:13:17.838Z,9.60
2023-04-12T10:14:21.824Z,9.65
2023-04-12T10:15:25.903Z,9.70
2023-04-12T10:16:28.055Z,9.73
2023-04-12T10:17:29.986Z,9.76
2023-04-12T10:18:35.883Z,9.78
2023-04-12T10:19:37.933Z,9.80
2023-04-12T10:20:41.042Z,9.79
2023-04-12T10:21:43.109Z,9.83
2023-04-12T10:22:49.118Z,9.88
2023-04-12T10:23:51.073Z,9.94
2023-04-12T10:24:53.079Z,9.96
2023-04-12T10:25:57.318Z,10.02
2023-04-12T10:27:04.686Z,10.06
2023-04-12T10:28:17.784Z,10.09
2023-04-12T10:29:28.869Z,10.13
2023-04-12T10:30:32.083Z,10.16
2023-04-12T10:31:34.425Z,10.19
2023-04-12T10:32:36.716Z,10.18
2023-04-12T10:33:38.722Z,10.23
2023-04-12T10:34:43.309Z,10.26
2023-04-12T10:35:48.293Z,10.24
2023-04-12T10:36:53.981Z,10.24
2023-04-12T10:38:01.007Z,10.25
2023-04-12T10:39:10.319Z,10.29
2023-04-12T10:40:21.294Z,10.33
2023-04-12T10:41:24.224Z,10.41
2023-04-12T10:42:30.043Z,10.49
2023-04-12T10:43:31.961Z,10.54
2023-04-12T10:44:33.898Z,10.58
2023-04-12T10:45:37.003Z,10.64
2023-04-12T10:46:39.554Z,10.69
2023-04-12T10:47:56.003Z,10.77
2023-04-12T10:48:58.101Z,10.81
2023-04-12T10:50:18.561Z,10.85
2023-04-12T10:51:31.341Z,10.90
2023-04-12T10:52:33.288Z,11.00
2023-04-12T10:53:35.209Z,11.01
2023-04-12T10:54:37.245Z,11.06
2023-04-12T10:55:43.055Z,11.11
2023-04-12T10:56:45.817Z,11.15
2023-04-12T10:57:49.938Z,11.19
2023-04-12T10:58:51.818Z,11.23
2023-04-12T10:59:57.255Z,11.25
2023-04-12T11:00:59.667Z,11.32
2023-04-12T11:02:05.240Z,11.32
2023-04-12T11:03:10.079Z,11.35
2023-04-12T11:04:17.003Z,11.39
2023-04-12T11:05:19.749Z,11.46
2023-04-12T11:06:27.496Z,11.54
2023-04-12T11:07:58.827Z,11.61
2023-04-12T11:09:00.987Z,11.73
2023-04-12T11:10:03.135Z,11.78
2023-04-12T11:11:06.212Z,11.80
2023-04-12T11:12:10.409Z,11.85
2023-04-12T11:13:15.109Z,11.92
2023-04-12T11:14:17.057Z,11.95
2023-04-12T11:15:19.202Z,11.95
2023-04-12T11:16:21.161Z,11.99
2023-04-12T11:17:24.329Z,12.01
2023-04-12T11:18:26.606Z,11.97
2023-04-12T11:19:28.737Z,11.99
2023-04-12T11:20:33.637Z,12.01
2023-04-12T11:21:35.962Z,12.05
2023-04-12T11:22:40.298Z,12.09
2023-04-12T11:23:42.913Z,12.09
2023-04-12T11:24:46.098Z,12.12
2023-04-12T11:25:54.049Z,12.13
2023-04-12T11:26:56.595Z,12.15
2023-04-12T11:27:58.441Z,12.11
2023-04-12T11:29:07.044Z,12.10
2023-04-12T11:30:09.309Z,12.07
2023-04-12T11:31:12.365Z,12.08
2023-04-12T11:32:14.705Z,12.05
2023-04-12T11:33:31.393Z,12.05
2023-04-12T11:34:34.403Z,12.03
2023-04-12T11:35:36.330Z,12.03
2023-04-12T11:36:39.313Z,12.07
2023-04-12T11:37:41.424Z,12.13
2023-04-12T11:38:46.452Z,12.14
2023-04-12T11:39:50.411Z,12.15
2023-04-12T11:40:52.249Z,12.16
2023-04-12T11:41:54.085Z,12.19
2023-04-12T11:42:58.006Z,12.25
2023-04-12T11:44:00.087Z,12.30
2023-04-12T11:45:06.092Z,12.36
2023-04-12T11:46:14.215Z,12.44
2023-04-12T11:47:24.240Z,12.49
2023-04-12T11:48:26.816Z,12.55
2023-04-12T11:49:28.844Z,12.53
2023-04-12T11:50:31.628Z,12.56
2023-04-12T11:51:34.110Z,12.62
2023-04-12T11:52:36.280Z,12.69
2023-04-12T11:53:38.070Z,12.69
2023-04-12T11:54:46.948Z,12.73
2023-04-12T11:55:49.809Z,12.80
2023-04-12T11:56:51.680Z,12.85
2023-04-12T11:57:56.240Z,12.89
2023-04-12T11:58:58.344Z,12.92
2023-04-12T12:00:00.658Z,12.93
2023-04-12T12:01:02.654Z,12.92
2023-04-12T12:02:20.971Z,12.89
2023-04-12T12:03:25.232Z,12.87
2023-04-12T12:04:28.873Z,12.83
2023-04-12T12:05:37.137Z,12.84
2023-04-12T12:06:39.832Z,12.87
2023-04-12T12:07:42.717Z,12.92
2023-04-12T12:08:44.622Z,12.91
2023-04-12T12:09:47.013Z,12.87
2023-04-12T12:11:06.504Z,12.88
2023-04-12T12:12:11.117Z,12.91
2023-04-12T12:13:13.767Z,12.93
2023-04-12T12:14:19.598Z,12.98
2023-04-12T12:15:21.502Z,13.03
2023-04-12T12:16:28.791Z,13.02
2023-04-12T12:17:31.006Z,13.00
2023-04-12T12:18:32.918Z,13.06
2023-04-12T12:19:39.098Z,13.13
2023-04-12T12:20:42.345Z,13.20
2023-04-12T12:21:44.158Z,13.18
2023-04-12T12:22:47.562Z,13.22
2023-04-12T12:23:50.293Z,13.27
2023-04-12T12:24:53.322Z,13.31
2023-04-12T12:26:03.066Z,13.32
2023-04-12T12:27:12.548Z,13.27
2023-04-12T12:28:14.412Z,13.26
2023-04-12T12:29:20.028Z,13.24
2023-04-12T12:30:21.911Z,13.17
2023-04-12T12:31:28.749Z,13.16
2023-04-12T12:32:35.275Z,13.18
2023-04-12T12:33:46.497Z,13.14
2023-04-12T12:34:53.711Z,13.10
2023-04-12T12:35:58.327Z,13.11
2023-04-12T12:37:00.350Z,13.17
2023-04-12T12:38:07.221Z,13.19
2023-04-12T12:39:12.993Z,13.18
2023-04-12T12:40:15.717Z,13.19
2023-04-12T12:41:21.168Z,13.22
2023-04-12T12:42:23.620Z,13.25
2023-04-12T12:43:25.947Z,13.26
2023-04-12T12:44:27.722Z,13.22
2023-04-12T12:45:31.869Z,13.19
2023-04-12T12:46:44.721Z,13.17
2023-04-12T12:47:55.410Z,13.23
2023-04-12T12:48:57.363Z,13.22
2023-04-12T12:49:59.289Z,13.22
2023-04-12T12:51:01.276Z,13.18
2023-04-12T12:52:03.102Z,13.18
2023-04-12T12:53:06.902Z,13.18
2023-04-12T12:54:08.830Z,13.20
2023-04-12T12:55:11.377Z,13.21
2023-04-12T12:56:14.612Z,13.21
2023-04-12T12:57:16.511Z,13.19
2023-04-12T12:58:18.307Z,13.16
2023-04-12T12:59:20.280Z,13.13
2023-04-12T13:00:23.945Z,13.12
2023-04-12T13:01:25.881Z,13.09
2023-04-12T13:02:27.801Z,13.07
2023-04-12T13:03:29.863Z,13.02
2023-04-12T13:04:32.085Z,13.00
2023-04-12T13:05:34.057Z,12.96
2023-04-12T13:06:36.088Z,12.94
2023-04-12T13:07:38.481Z,12.92
2023-04-12T13:08:40.305Z,12.91
2023-04-12T13:09:42.136Z,12.88
2023-04-12T13:10:44.226Z,12.87
2023-04-12T13:11:46.308Z,12.88
2023-04-12T13:12:48.221Z,12.85
2023-04-12T13:13:50.081Z,12.87
2023-04-12T13:14:56.109Z,12.90
2023-04-12T13:16:02.131Z,12.91
2023-04-12T13:17:04.099Z,12.92
2023-04-12T13:18:06.102Z,12.91
2023-04-12T13:19:08.018Z,12.91
2023-04-12T13:20:10.134Z,12.92
2023-04-12T13:21:11.912Z,12.95
2023-04-12T13:22:14.230Z,12.95
2023-04-12T13:23:16.259Z,12.99
2023-04-12T13:24:18.120Z,12.97
2023-04-12T13:25:20.720Z,13.00
2023-04-12T13:26:25.972Z,13.01
2023-04-12T13:27:28.040Z,13.04
2023-04-12T13:28:29.852Z,13.01
2023-04-12T13:29:31.761Z,13.00
2023-04-12T13:30:33.702Z,13.04
2023-04-12T13:31:35.676Z,13.04
2023-04-12T13:32:38.206Z,13.06
2023-04-12T13:33:40.079Z,13.09
2023-04-12T13:34:41.938Z,13.12
2023-04-12T13:35:45.459Z,13.10
2023-04-12T13:36:47.348Z,13.12
2023-04-12T13:37:49.185Z,13.12
2023-04-12T13:38:51.052Z,13.10
2023-04-12T13:39:53.069Z,13.12
2023-04-12T13:40:56.711Z,13.15
2023-04-12T13:41:58.711Z,13.17
2023-04-12T13:43:00.708Z,13.18
2023-04-12T13:44:02.680Z,13.24
2023-04-12T13:45:05.610Z,13.23
2023-04-12T13:46:07.519Z,13.24
2023-04-12T13:47:09.459Z,13.25
2023-04-12T13:48:11.559Z,13.24
2023-04-12T13:49:13.476Z,13.21
2023-04-12T13:50:15.709Z,13.22
2023-04-12T13:51:18.444Z,13.21
2023-04-12T13:52:20.389Z,13.21
2023-04-12T13:53:22.282Z,13.18
2023-04-12T13:54:24.112Z,13.17
2023-04-12T13:55:26.143Z,13.16
2023-04-12T13:56:30.180Z,13.15
2023-04-12T13:57:32.648Z,13.12